Time;durP1;ratioP1;P1;durP2;ratioP2;P2;SDS_P1;SDS_P2;PMS_P1;PMS_P2;Temp;Humidity;BMP_temperature;BMP_pressure;BME280_temperature;BME280_humidity;BME280_pressure;Samples;Min_cycle;Max_cycle;Signal;HPM_P1;HPM_P2
2022/12/18 00:00:41;;;;;;;6.55;5.95;;;;;;;7.84;88.49;95802.25;4992186;28;20297;-65
2022/12/18 00:03:07;;;;;;;6.40;5.90;;;;;;;7.68;89.18;95801.56;4991309;28;20338;-63
2022/12/18 00:05:36;;;;;;;9.32;6.22;;;;;;;7.67;89.02;95809.22;4992455;28;20674;-64
2022/12/18 00:08:03;;;;;;;6.35;5.88;;;;;;;7.53;89.44;95811.03;4991166;28;20208;-62
2022/12/18 00:10:30;;;;;;;7.18;6.57;;;;;;;7.50;89.78;95809.34;4990947;28;20231;-63
2022/12/18 00:12:57;;;;;;;7.93;7.00;;;;;;;7.48;89.79;95808.53;4992774;28;20859;-64
2022/12/18 00:15:24;;;;;;;7.25;6.63;;;;;;;7.38;89.71;95807.81;4991629;28;20199;-61
2022/12/18 00:17:50;;;;;;;7.07;6.43;;;;;;;7.30;90.78;95812.09;4991861;28;20262;-64
2022/12/18 00:20:21;;;;;;;6.93;6.32;;;;;;;7.36;89.94;95819.63;4991654;28;20639;-63
2022/12/18 00:22:49;;;;;;;7.13;6.47;;;;;;;7.38;89.05;95828.03;4992755;28;20203;-65
2022/12/18 00:25:16;;;;;;;7.57;6.55;;;;;;;7.44;88.94;95822.91;4991180;28;20203;-66
2022/12/18 00:27:43;;;;;;;7.43;6.82;;;;;;;7.38;89.05;95820.44;4991447;28;20285;-62
2022/12/18 00:30:10;;;;;;;8.43;7.63;;;;;;;7.37;89.21;95831.41;4991708;28;22149;-66
2022/12/18 00:32:37;;;;;;;8.45;7.65;;;;;;;7.42;88.82;95833.91;4989314;28;20281;-65
2022/12/18 00:35:05;;;;;;;7.50;6.85;;;;;;;7.38;88.52;95832.25;4991957;28;20250;-65
2022/12/18 00:37:34;;;;;;;6.07;5.57;;;;;;;7.22;89.18;95836.56;4990439;28;20243;-65
2022/12/18 00:40:02;;;;;;;8.00;7.25;;;;;;;7.26;89.31;95839.91;4991475;28;20212;-65
2022/12/18 00:45:13;;;;;;;7.45;6.78;;;;;;;7.30;88.12;95836.53;4989709;28;20730;-62
2022/12/18 00:47:39;;;;;;;7.95;7.25;;;;;;;7.26;88.40;95835.72;4989846;28;20235;-66
2022/12/18 00:50:07;;;;;;;6.57;6.07;;;;;;;7.29;88.66;95844.97;4992270;28;20658;-64
2022/12/18 00:52:34;;;;;;;7.03;6.50;;;;;;;7.25;88.28;95846.66;4991043;28;20799;-61
2022/12/18 00:55:02;;;;;;;6.97;6.32;;;;;;;7.26;88.45;95850.88;4990598;28;20285;-61
2022/12/18 00:57:29;;;;;;;7.00;6.43;;;;;;;7.29;87.84;95855.91;4988666;28;20216;-64
2022/12/18 00:59:55;;;;;;;8.00;6.97;;;;;;;7.24;87.54;95867.75;4990411;28;20234;-62
2022/12/18 01:02:22;;;;;;;7.95;6.90;;;;;;;7.27;87.20;95864.34;4991091;28;20277;-63
2022/12/18 01:04:49;;;;;;;8.32;7.15;;;;;;;7.07;87.36;95849.34;4991091;28;20203;-62
2022/12/18 01:07:16;;;;;;;7.53;6.82;;;;;;;7.14;87.40;95866.16;4988784;28;20293;-61
2022/12/18 01:09:42;;;;;;;8.55;7.65;;;;;;;7.04;88.15;95872.94;4990931;28;22251;-63
2022/12/18 01:12:10;;;;;;;7.03;6.40;;;;;;;6.93;88.46;95864.59;4990666;28;20239;-61
2022/12/18 01:14:37;;;;;;;11.68;7.45;;;;;;;6.89;88.04;95872.22;4990928;28;20251;-61
2022/12/18 01:17:04;;;;;;;8.07;7.22;;;;;;;6.82;88.17;95862.16;4990616;28;20226;-63
2022/12/18 01:19:31;;;;;;;9.07;7.72;;;;;;;6.83;88.64;95876.47;4990194;28;20294;-63
2022/12/18 01:21:58;;;;;;;7.90;7.35;;;;;;;6.81;88.14;95875.63;4990303;28;20298;-63
2022/12/18 01:24:25;;;;;;;9.18;7.85;;;;;;;6.80;89.13;95888.28;4990186;28;20236;-64
2022/12/18 01:26:51;;;;;;;9.40;7.82;;;;;;;6.82;87.78;95887.41;4989430;28;20211;-63
2022/12/18 01:29:19;;;;;;;8.52;7.63;;;;;;;6.81;88.43;95873.09;4989397;28;20204;-65
2022/12/18 01:31:46;;;;;;;8.55;7.55;;;;;;;6.73;87.62;95876.50;4990530;28;20226;-61
2022/12/18 01:34:14;;;;;;;10.80;7.93;;;;;;;6.73;87.95;95882.41;4990166;28;20732;-64
2022/12/18 01:36:40;;;;;;;8.60;7.80;;;;;;;6.77;88.50;95884.06;4990280;28;20207;-64
2022/12/18 01:39:10;;;;;;;8.85;7.75;;;;;;;6.76;88.39;95902.59;4989468;28;20212;-61
2022/12/18 01:44:54;;;;;;;8.95;8.05;;;;;;;6.66;88.47;95901.00;4987510;28;20624;-63
2022/12/18 01:47:25;;;;;;;8.48;7.47;;;;;;;6.58;88.09;95907.75;4986848;28;20975;-62
2022/12/18 01:49:53;;;;;;;7.97;7.28;;;;;;;6.47;88.45;95904.41;4989759;28;20677;-61
2022/12/18 01:52:21;;;;;;;11.13;8.13;;;;;;;6.45;88.85;95901.06;4989297;28;20214;-62
2022/12/18 01:54:50;;;;;;;9.90;8.95;;;;;;;6.36;89.24;95907.00;4990524;28;20344;-64
2022/12/18 01:57:17;;;;;;;8.35;7.55;;;;;;;6.42;89.63;95903.63;4989026;28;20751;-63
2022/12/18 01:59:46;;;;;;;8.73;7.93;;;;;;;6.43;89.17;95903.59;4989961;28;20235;-62
2022/12/18 02:02:13;;;;;;;8.82;7.20;;;;;;;6.38;88.37;95904.47;4989043;28;20275;-64
2022/12/18 02:04:41;;;;;;;8.05;7.25;;;;;;;6.37;89.32;95908.69;4990952;28;20216;-65
2022/12/18 02:07:15;;;;;;;7.53;6.57;;;;;;;6.32;88.55;95896.91;4987095;28;20232;-64
2022/12/18 02:09:49;;;;;;;8.25;7.32;;;;;;;6.29;88.72;95909.56;4987951;28;20673;-65
2022/12/18 02:12:19;;;;;;;8.20;7.40;;;;;;;6.35;89.25;95912.06;4988666;28;20259;-65
2022/12/18 02:14:55;;;;;;;8.65;7.22;;;;;;;6.39;87.82;95909.53;4989727;28;20276;-63
2022/12/18 02:17:24;;;;;;;7.00;6.38;;;;;;;6.39;87.99;95916.25;4988708;28;20297;-64
2022/12/18 02:20:06;;;;;;;7.68;6.93;;;;;;;6.33;88.14;95916.28;4989721;28;20285;-65
2022/12/18 02:22:45;;;;;;;7.25;6.55;;;;;;;6.29;88.92;95917.97;4990371;28;20215;-64
2022/12/18 02:25:29;;;;;;;7.72;6.97;;;;;;;6.40;88.65;95917.94;4989714;28;20214;-65
2022/12/18 02:28:02;;;;;;;6.70;6.10;;;;;;;6.38;88.44;95932.25;4988634;28;20200;-61
2022/12/18 02:30:32;;;;;;;7.47;6.88;;;;;;;6.38;87.65;95925.53;4989063;28;20219;-62
2022/12/18 02:33:03;;;;;;;7.35;6.75;;;;;;;6.39;88.00;95929.72;4987449;28;20201;-62
2022/12/18 02:35:31;;;;;;;7.35;6.60;;;;;;;6.32;88.85;95925.53;4987846;28;20232;-61
2022/12/18 02:37:59;;;;;;;7.22;6.63;;;;;;;6.38;88.33;95924.69;4989625;28;20741;-65
2022/12/18 02:40:28;;;;;;;10.07;7.38;;;;;;;6.38;87.52;95937.31;4986425;28;20236;-63
2022/12/18 02:42:54;;;;;;;7.25;6.60;;;;;;;6.36;88.15;95936.47;4989126;28;20352;-61
2022/12/18 02:45:23;;;;;;;7.97;7.05;;;;;;;6.28;87.74;95936.47;4988071;28;20265;-63
2022/12/18 02:47:50;;;;;;;7.93;6.60;;;;;;;6.24;87.71;95941.53;4989328;28;20263;-63
2022/12/18 02:50:23;;;;;;;9.43;6.93;;;;;;;6.24;88.27;95941.53;4988638;28;20289;-64
2022/12/18 02:53:00;;;;;;;6.88;6.28;;;;;;;6.30;88.93;95944.88;4989299;28;20223;-65
2022/12/18 02:55:40;;;;;;;8.48;6.97;;;;;;;6.35;87.85;95934.78;4987451;28;20267;-62
2022/12/18 02:58:16;;;;;;;7.15;6.53;;;;;;;6.36;88.39;95949.09;4990123;28;20262;-64
2022/12/18 03:00:52;;;;;;;7.13;6.28;;;;;;;6.33;87.75;95942.34;4987417;28;20328;-62
2022/12/18 03:03:25;;;;;;;7.53;6.82;;;;;;;6.33;87.43;95939.00;4988484;28;20952;-65
2022/12/18 03:05:56;;;;;;;10.07;6.88;;;;;;;6.29;88.15;95942.38;4987259;28;20238;-61
2022/12/18 03:08:25;;;;;;;11.18;7.32;;;;;;;6.25;87.26;95938.16;4989226;28;20239;-64
2022/12/18 03:10:58;;;;;;;10.13;7.70;;;;;;;6.22;88.52;95945.75;4988481;28;20285;-61
2022/12/18 03:13:31;;;;;;;7.10;6.45;;;;;;;6.25;87.57;95943.22;4988871;28;20646;-61
2022/12/18 03:16:01;;;;;;;9.27;7.13;;;;;;;6.26;87.21;95950.78;4987085;28;20256;-65
2022/12/18 03:18:33;;;;;;;10.05;6.95;;;;;;;6.12;87.17;95952.50;4989316;28;20208;-65
2022/12/18 03:21:03;;;;;;;10.52;6.15;;;;;;;6.02;88.40;95944.13;4986298;28;20350;-63
2022/12/18 03:23:36;;;;;;;8.48;7.35;;;;;;;6.09;87.76;95955.88;4988140;28;20690;-65
2022/12/18 03:26:11;;;;;;;9.10;6.93;;;;;;;6.06;87.22;95958.41;4987152;28;20568;-63
2022/12/18 03:28:43;;;;;;;8.13;7.43;;;;;;;6.06;87.79;95967.66;4989506;28;21795;-60
2022/12/18 03:31:13;;;;;;;8.00;7.20;;;;;;;6.06;87.30;95972.72;4987920;28;20203;-65
2022/12/18 03:33:45;;;;;;;7.47;6.03;;;;;;;6.15;87.64;95977.75;4988682;28;20273;-61
2022/12/18 03:36:12;;;;;;;7.88;7.07;;;;;;;6.09;86.49;95978.59;4987700;28;20615;-64
2022/12/18 03:38:39;;;;;;;6.97;6.28;;;;;;;6.17;86.49;95982.78;4988506;28;20261;-65
2022/12/18 03:41:12;;;;;;;8.27;6.75;;;;;;;6.13;85.80;95982.78;4989001;28;20261;-64
2022/12/18 03:43:49;;;;;;;6.90;6.30;;;;;;;6.10;84.85;95971.88;4988118;28;20211;-62
2022/12/18 03:46:27;;;;;;;7.47;6.75;;;;;;;6.10;84.71;95995.41;4987049;28;20200;-62
2022/12/18 03:49:01;;;;;;;7.40;6.75;;;;;;;6.11;84.93;96002.16;4989319;28;20697;-64
2022/12/18 03:51:35;;;;;;;7.40;6.70;;;;;;;6.08;85.63;96007.19;4987381;28;20862;-62
2022/12/18 03:54:04;;;;;;;7.32;6.55;;;;;;;6.13;84.57;96008.03;4988311;28;20211;-65
2022/12/18 03:56:36;;;;;;;6.60;6.00;;;;;;;5.97;84.02;96013.91;4987470;28;20672;-61
2022/12/18 03:59:05;;;;;;;8.63;7.78;;;;;;;5.91;84.98;96003.84;4988778;28;20235;-66
2022/12/18 04:01:36;;;;;;;7.05;6.35;;;;;;;5.92;84.79;96005.53;4987727;28;20680;-64
2022/12/18 04:04:05;;;;;;;8.88;7.97;;;;;;;5.92;85.08;96000.50;4989134;28;20246;-65
2022/12/18 04:06:33;;;;;;;8.80;7.80;;;;;;;5.89;85.51;96010.59;4988563;28;20200;-62
2022/12/18 04:08:59;;;;;;;8.00;7.20;;;;;;;5.79;85.13;96003.81;4988328;28;20235;-65
2022/12/18 04:11:26;;;;;;;8.90;7.95;;;;;;;5.80;86.05;96005.50;4989155;28;20258;-63
2022/12/18 04:13:57;;;;;;;12.50;8.10;;;;;;;5.71;84.85;96021.44;4987984;28;20374;-66
2022/12/18 04:16:24;;;;;;;10.57;7.77;;;;;;;5.65;84.80;96023.16;4987934;28;20226;-65
2022/12/18 04:18:52;;;;;;;10.97;9.07;;;;;;;5.75;85.24;96027.34;4989560;28;20305;-65
2022/12/18 04:21:19;;;;;;;12.95;9.63;;;;;;;5.77;85.26;96025.66;4987769;28;20664;-67
2022/12/18 04:23:45;;;;;;;9.40;8.10;;;;;;;5.85;83.84;96041.66;4987768;28;20650;-64
2022/12/18 04:26:12;;;;;;;10.63;8.60;;;;;;;5.89;83.24;96045.06;4987490;28;20983;-64
2022/12/18 04:28:39;;;;;;;9.15;8.02;;;;;;;5.88;84.47;96044.19;4988589;28;20208;-62
2022/12/18 04:31:06;;;;;;;9.67;8.67;;;;;;;5.91;83.64;96049.28;4989348;28;20215;-65
2022/12/18 04:33:33;;;;;;;9.48;8.25;;;;;;;5.93;82.63;96057.69;4988928;28;20744;-63
2022/12/18 04:36:01;;;;;;;12.48;9.50;;;;;;;5.86;82.21;96061.00;4991097;28;20842;-63
2022/12/18 04:38:28;;;;;;;11.20;9.95;;;;;;;5.82;82.88;96059.31;4991777;28;20208;-66
2022/12/18 04:40:54;;;;;;;15.02;9.70;;;;;;;5.86;82.55;96065.19;4990953;28;20212;-64
2022/12/18 04:43:21;;;;;;;12.13;9.02;;;;;;;5.77;82.17;96069.38;4991182;28;20665;-63
2022/12/18 04:45:48;;;;;;;12.10;9.63;;;;;;;5.76;81.80;96076.94;4991156;28;20231;-64
2022/12/18 04:48:14;;;;;;;11.88;9.52;;;;;;;5.59;81.20;96055.91;4990094;28;20258;-62
2022/12/18 04:50:41;;;;;;;13.57;10.23;;;;;;;5.74;81.42;96081.16;4990930;28;20231;-61
2022/12/18 04:53:09;;;;;;;14.20;9.95;;;;;;;5.72;81.56;96083.66;4991278;28;20210;-63
2022/12/18 04:55:36;;;;;;;15.55;10.55;;;;;;;5.67;81.46;96095.44;4991838;28;20282;-66
2022/12/18 04:58:02;;;;;;;14.10;11.03;;;;;;;5.63;81.47;96097.97;4989789;28;20254;-65
2022/12/18 05:00:29;;;;;;;13.33;10.60;;;;;;;5.59;81.31;96093.75;4991314;28;20232;-64
2022/12/18 05:02:56;;;;;;;14.10;10.60;;;;;;;5.57;81.00;96097.94;4989155;28;20204;-62
2022/12/18 05:05:22;;;;;;;13.45;9.80;;;;;;;5.56;81.25;96103.81;4990108;28;20245;-65
2022/12/18 05:07:49;;;;;;;19.30;11.40;;;;;;;5.56;81.61;96103.81;4990984;28;20245;-64
2022/12/18 05:10:17;;;;;;;13.10;11.27;;;;;;;5.48;80.97;96094.53;4990855;28;20830;-62
2022/12/18 05:15:41;;;;;;;14.23;10.70;;;;;;;5.59;81.92;96118.97;5086542;27;20583;-65
2022/12/18 05:18:08;;;;;;;20.65;12.27;;;;;;;5.55;81.38;96115.59;5070156;28;21182;-62
2022/12/18 05:20:35;;;;;;;13.50;10.57;;;;;;;5.58;81.32;96115.59;5069850;28;20201;-64
2022/12/18 05:23:02;;;;;;;15.50;11.73;;;;;;;5.52;81.95;96129.84;5070448;28;20262;-65
2022/12/18 05:25:28;;;;;;;14.65;11.07;;;;;;;5.54;82.13;96138.28;5068715;28;20201;-65
2022/12/18 05:27:55;;;;;;;14.23;11.20;;;;;;;5.50;82.19;96146.66;5070082;28;20257;-65
2022/12/18 05:30:22;;;;;;;14.63;11.07;;;;;;;5.50;82.25;96136.56;5070122;28;20623;-66
2022/12/18 05:32:50;;;;;;;16.17;11.47;;;;;;;5.55;81.33;96143.31;5069740;28;21402;-64
2022/12/18 05:35:17;;;;;;;15.88;11.57;;;;;;;5.53;81.32;96156.75;5067364;28;20614;-65
2022/12/18 05:37:44;;;;;;;17.33;12.48;;;;;;;5.56;81.01;96156.78;5069948;28;20209;-65
2022/12/18 05:40:11;;;;;;;13.60;10.73;;;;;;;5.56;80.83;96156.78;5068837;28;20204;-65
2022/12/18 05:42:38;;;;;;;14.77;11.32;;;;;;;5.70;79.08;96160.16;5070458;28;20204;-62
2022/12/18 05:45:06;;;;;;;17.15;11.63;;;;;;;5.63;78.92;96176.13;5067546;28;21906;-65
2022/12/18 05:47:33;;;;;;;16.00;11.30;;;;;;;5.64;79.62;96175.31;5069773;28;20250;-66
2022/12/18 05:50:01;;;;;;;15.13;11.27;;;;;;;5.67;79.61;96165.22;5069643;28;20205;-62
2022/12/18 05:52:28;;;;;;;17.45;12.02;;;;;;;5.67;79.10;96176.16;5069554;28;20209;-64
2022/12/18 05:54:54;;;;;;;14.95;11.60;;;;;;;5.65;79.00;96175.31;5068188;28;20225;-65
2022/12/18 05:57:21;;;;;;;17.30;11.90;;;;;;;5.60;78.45;96166.03;5069720;28;20205;-65
2022/12/18 05:59:48;;;;;;;17.42;11.48;;;;;;;5.51;78.63;96173.56;5069340;28;20201;-66
2022/12/18 06:02:15;;;;;;;37.67;22.83;;;;;;;5.48;79.79;96180.28;5069371;28;20205;-65
2022/12/18 06:04:41;;;;;;;17.13;12.82;;;;;;;5.57;78.86;96193.75;5065878;28;20193;-65
2022/12/18 06:07:09;;;;;;;17.38;12.50;;;;;;;5.58;79.88;96197.97;5069879;28;20201;-62
2022/12/18 06:09:36;;;;;;;19.13;12.60;;;;;;;5.63;79.30;96198.84;5069292;28;20205;-67
2022/12/18 06:12:03;;;;;;;15.90;12.00;;;;;;;5.61;80.57;96195.47;5069048;28;20209;-65
2022/12/18 06:14:30;;;;;;;16.95;12.57;;;;;;;5.69;79.19;96191.28;5068863;28;20713;-66
2022/12/18 06:16:57;;;;;;;15.88;11.85;;;;;;;5.69;78.96;96196.34;5067796;28;20741;-68
2022/12/18 06:19:23;;;;;;;17.92;12.38;;;;;;;5.64;79.69;96195.47;5068422;28;20533;-70
2022/12/18 06:21:51;;;;;;;18.55;13.20;;;;;;;5.64;78.94;96190.44;5069002;28;20217;-66
2022/12/18 06:24:19;;;;;;;16.40;13.32;;;;;;;5.58;79.55;96203.00;5068447;28;20288;-64
2022/12/18 06:26:45;;;;;;;18.73;12.13;;;;;;;5.55;79.85;96200.47;5056274;28;20258;-64
2022/12/18 06:29:12;;;;;;;17.90;11.98;;;;;;;5.60;79.89;96208.91;5055525;28;20251;-62
2022/12/18 06:31:39;;;;;;;21.95;12.23;;;;;;;5.64;79.57;96201.38;5055732;28;20654;-67
2022/12/18 06:34:06;;;;;;;17.92;12.18;;;;;;;5.66;78.68;96204.72;5054599;28;20288;-64
2022/12/18 06:36:33;;;;;;;15.93;11.93;;;;;;;5.72;78.88;96209.78;5054098;28;20213;-64
2022/12/18 06:39:00;;;;;;;12.82;10.40;;;;;;;5.75;79.06;96203.91;5055348;28;20210;-64
2022/12/18 06:41:28;;;;;;;17.83;11.25;;;;;;;5.79;78.84;96215.69;5054913;28;20213;-63
2022/12/18 06:43:54;;;;;;;15.48;12.30;;;;;;;5.75;78.33;96226.59;5055819;28;20301;-64
2022/12/18 06:46:21;;;;;;;11.70;9.95;;;;;;;5.76;77.19;96226.59;5053515;28;20635;-64
2022/12/18 06:48:50;;;;;;;23.48;14.75;;;;;;;5.73;77.48;96224.06;5053985;28;21720;-63
2022/12/18 06:51:18;;;;;;;14.75;11.00;;;;;;;5.79;77.37;96235.88;5054921;28;20261;-64
2022/12/18 06:53:45;;;;;;;15.27;10.98;;;;;;;5.81;75.75;96244.28;5054375;28;20757;-67
2022/12/18 06:56:12;;;;;;;14.05;10.55;;;;;;;5.75;75.32;96235.00;5054013;28;20262;-65
2022/12/18 06:58:40;;;;;;;14.50;11.07;;;;;;;5.76;74.88;96241.75;5054914;28;20259;-65
2022/12/18 07:01:09;;;;;;;15.45;11.98;;;;;;;5.76;74.06;96240.91;5055574;28;20266;-66
2022/12/18 07:03:36;;;;;;;15.18;10.77;;;;;;;5.62;74.94;96245.06;5055142;28;20543;-66
2022/12/18 07:06:03;;;;;;;13.00;10.40;;;;;;;5.55;76.28;96241.66;5053240;28;22581;-65
2022/12/18 07:08:30;;;;;;;16.27;11.52;;;;;;;5.58;77.00;96248.41;5053700;28;20267;-67
2022/12/18 07:10:57;;;;;;;17.90;12.90;;;;;;;5.54;76.91;96244.16;5054301;28;20202;-65
2022/12/18 07:13:24;;;;;;;28.77;17.77;;;;;;;5.54;77.44;96250.06;5054384;28;20209;-65
2022/12/18 07:15:52;;;;;;;26.25;16.58;;;;;;;5.58;76.96;96254.28;5054060;28;20233;-64
2022/12/18 07:18:19;;;;;;;18.77;13.57;;;;;;;5.59;76.54;96250.09;5052743;28;20785;-65
2022/12/18 07:20:46;;;;;;;21.87;14.50;;;;;;;5.43;76.93;96249.19;5052406;28;20235;-65
2022/12/18 07:23:12;;;;;;;24.37;13.53;;;;;;;5.42;77.82;96255.91;5053248;28;20201;-67
2022/12/18 07:25:39;;;;;;;17.33;13.60;;;;;;;5.27;77.69;96234.78;5052005;28;20190;-64
2022/12/18 07:28:06;;;;;;;23.93;14.40;;;;;;;5.34;78.20;96256.69;5051712;28;20267;-62
2022/12/18 07:30:33;;;;;;;21.77;14.07;;;;;;;5.31;78.47;96266.75;5053416;28;20213;-64
2022/12/18 07:33:01;;;;;;;24.97;15.70;;;;;;;5.32;78.16;96264.22;5054650;28;20202;-63
2022/12/18 07:35:28;;;;;;;22.23;14.07;;;;;;;5.32;78.34;96264.22;5051205;28;20778;-68
2022/12/18 07:37:54;;;;;;;22.27;14.95;;;;;;;5.24;78.28;96263.31;5051967;28;20283;-65
2022/12/18 07:40:21;;;;;;;21.33;14.15;;;;;;;5.12;78.84;96275.88;5051393;28;20202;-66
2022/12/18 07:42:48;;;;;;;19.20;13.77;;;;;;;5.02;79.93;96264.88;5052857;28;20228;-62
2022/12/18 07:45:15;;;;;;;21.42;12.25;;;;;;;5.10;80.13;96275.00;5051616;28;20968;-62
2022/12/18 07:47:42;;;;;;;21.42;14.02;;;;;;;5.16;79.66;96272.53;5053509;28;20275;-62
2022/12/18 07:50:10;;;;;;;26.67;15.13;;;;;;;5.25;79.36;96275.09;5052651;28;20296;-61
2022/12/18 07:52:37;;;;;;;18.23;13.68;;;;;;;5.26;79.05;96273.44;5053198;28;20262;-64
2022/12/18 07:55:04;;;;;;;21.95;14.85;;;;;;;5.31;80.03;96277.66;5053463;28;21040;-64
2022/12/18 07:57:31;;;;;;;21.83;14.27;;;;;;;5.41;79.79;96279.41;5053314;28;20202;-62
2022/12/18 07:59:58;;;;;;;21.10;15.23;;;;;;;5.41;78.89;96293.69;5052473;28;20213;-66
2022/12/18 08:02:24;;;;;;;17.92;13.85;;;;;;;5.43;78.77;96302.97;5053896;28;20298;-64
2022/12/18 08:04:51;;;;;;;22.52;15.15;;;;;;;5.53;79.26;96292.91;5053267;28;20294;-66
2022/12/18 08:07:19;;;;;;;23.15;15.40;;;;;;;5.46;79.10;96297.91;5054255;28;20759;-67
2022/12/18 08:09:46;;;;;;;20.35;15.10;;;;;;;5.54;79.03;96297.97;5053015;28;20281;-62
2022/12/18 08:12:12;;;;;;;23.83;14.52;;;;;;;5.40;79.33;96287.81;5053296;28;20206;-64
2022/12/18 08:14:39;;;;;;;23.15;14.27;;;;;;;5.60;79.00;96307.25;5054024;28;20739;-61
2022/12/18 08:17:06;;;;;;;28.88;17.60;;;;;;;5.65;78.96;96303.09;5052200;28;20210;-65
2022/12/18 08:19:33;;;;;;;23.42;15.73;;;;;;;5.73;77.66;96311.50;5053443;28;20206;-67
2022/12/18 08:22:00;;;;;;;22.67;13.65;;;;;;;5.61;77.38;96311.47;5051569;28;20258;-67
2022/12/18 08:24:28;;;;;;;26.80;17.60;;;;;;;5.56;77.56;96318.16;5051985;28;20772;-62
2022/12/18 08:26:56;;;;;;;22.90;14.27;;;;;;;5.44;77.14;96299.56;5050059;28;20206;-64
2022/12/18 08:29:23;;;;;;;20.70;13.93;;;;;;;5.64;77.12;96321.56;5051521;28;20205;-65
2022/12/18 08:31:50;;;;;;;20.08;14.35;;;;;;;5.64;76.57;96321.56;5053125;28;20209;-62
2022/12/18 08:34:17;;;;;;;22.73;14.65;;;;;;;5.68;76.86;96335.88;5052191;28;20286;-63
2022/12/18 08:36:43;;;;;;;22.05;14.07;;;;;;;5.69;76.73;96332.53;5050553;28;20710;-64
2022/12/18 08:39:10;;;;;;;18.80;12.95;;;;;;;5.72;76.36;96335.03;5050701;28;20210;-62
2022/12/18 08:41:38;;;;;;;20.20;13.85;;;;;;;5.68;75.77;96328.31;5050106;28;20201;-66
2022/12/18 08:46:49;;;;;;;24.65;16.83;;;;;;;5.74;75.46;96343.47;5050887;28;20273;-65
2022/12/18 08:49:16;;;;;;;22.05;14.40;;;;;;;5.75;75.09;96335.06;5052044;28;20204;-65
2022/12/18 08:51:42;;;;;;;18.40;13.52;;;;;;;5.77;75.46;96351.06;5052217;28;20644;-64
2022/12/18 08:54:11;;;;;;;26.83;12.80;;;;;;;5.80;75.31;96343.50;5053107;28;20197;-68
2022/12/18 08:56:39;;;;;;;19.20;12.70;;;;;;;5.92;74.37;96343.63;5053768;28;20257;-68
2022/12/18 08:59:06;;;;;;;20.35;12.85;;;;;;;5.93;73.58;96342.78;5051954;28;20209;-65
2022/12/18 09:01:33;;;;;;;25.60;15.50;;;;;;;5.91;73.37;96339.41;5051153;28;20205;-64
2022/12/18 09:04:00;;;;;;;18.05;12.80;;;;;;;5.96;72.95;96345.28;5051558;28;20654;-65
2022/12/18 09:06:26;;;;;;;22.33;13.85;;;;;;;5.92;72.72;96341.09;5052750;28;20206;-65
2022/12/18 09:08:53;;;;;;;16.38;11.73;;;;;;;5.96;72.42;96332.69;5051813;28;20216;-67
2022/12/18 09:11:22;;;;;;;15.43;12.18;;;;;;;6.02;72.17;96335.25;5051978;28;20595;-67
2022/12/18 09:13:51;;;;;;;16.77;11.90;;;;;;;6.10;71.28;96337.81;5050626;28;20241;-64
2022/12/18 09:16:19;;;;;;;16.15;11.57;;;;;;;6.10;71.30;96337.81;5051300;28;20264;-64
2022/12/18 09:18:46;;;;;;;26.27;15.88;;;;;;;6.08;71.56;96340.31;5051883;28;20624;-66
2022/12/18 09:21:14;;;;;;;19.80;12.80;;;;;;;6.17;71.88;96348.78;5053044;28;20197;-67
2022/12/18 09:23:41;;;;;;;17.85;12.93;;;;;;;6.30;70.87;96343.75;5051294;28;20206;-63
2022/12/18 09:26:08;;;;;;;21.02;12.35;;;;;;;6.40;71.40;96339.59;5051036;28;20201;-64
2022/12/18 09:28:35;;;;;;;16.27;11.95;;;;;;;6.47;69.87;96341.28;5052507;28;20283;-65
2022/12/18 09:31:08;;;;;;;18.48;12.07;;;;;;;6.56;69.38;96341.31;5052246;28;20205;-65
2022/12/18 09:33:35;;;;;;;15.82;11.88;;;;;;;6.55;70.21;96337.09;5051436;28;20228;-67
2022/12/18 09:36:02;;;;;;;19.77;11.40;;;;;;;6.49;69.05;96340.44;5051228;28;22820;-63
2022/12/18 09:38:29;;;;;;;16.30;12.43;;;;;;;6.45;69.23;96335.38;5051578;28;20213;-61
2022/12/18 09:41:00;;;;;;;17.92;11.52;;;;;;;6.42;70.05;96332.88;5051759;28;20288;-64
2022/12/18 09:43:31;;;;;;;17.88;10.88;;;;;;;6.26;69.85;96329.44;5051635;28;20257;-66
2022/12/18 09:46:03;;;;;;;14.95;11.15;;;;;;;6.26;69.99;96341.22;5051667;28;20209;-65
2022/12/18 09:48:37;;;;;;;18.02;12.25;;;;;;;6.28;70.08;96342.06;5051690;28;20210;-63
2022/12/18 09:51:10;;;;;;;12.40;10.20;;;;;;;6.40;69.70;96342.13;5051463;28;20210;-63
2022/12/18 09:53:41;;;;;;;15.95;10.63;;;;;;;6.50;69.47;96338.75;5051288;28;20209;-62
2022/12/18 09:56:13;;;;;;;16.92;11.20;;;;;;;6.66;68.42;96330.41;5052399;28;20267;-65
2022/12/18 09:58:45;;;;;;;17.52;11.52;;;;;;;6.74;67.61;96332.91;5051665;28;23000;-66
2022/12/18 10:01:13;;;;;;;14.10;10.40;;;;;;;6.57;66.64;96332.91;5053575;28;20205;-63
2022/12/18 10:03:41;;;;;;;13.65;10.63;;;;;;;6.68;67.27;96318.59;5055073;28;20202;-64
2022/12/18 10:06:14;;;;;;;19.73;13.00;;;;;;;6.78;67.30;96316.94;5055031;28;20259;-64
2022/12/18 10:08:48;;;;;;;16.63;10.73;;;;;;;6.81;67.46;96334.63;5054574;28;20639;-62
2022/12/18 10:11:29;;;;;;;15.85;10.27;;;;;;;6.81;67.23;96334.63;5054930;28;20202;-63
2022/12/18 10:14:02;;;;;;;14.90;10.35;;;;;;;6.79;67.88;96327.03;5053923;28;20281;-64
2022/12/18 10:16:37;;;;;;;15.63;11.57;;;;;;;6.86;67.80;96337.16;5054284;28;20274;-63
2022/12/18 10:19:23;;;;;;;16.40;11.73;;;;;;;7.05;67.66;96331.28;5054378;28;20205;-64
2022/12/18 10:21:57;;;;;;;18.48;11.35;;;;;;;7.11;66.56;96333.81;5055148;28;20203;-64
2022/12/18 10:24:31;;;;;;;20.25;11.65;;;;;;;7.09;66.48;96340.53;5054895;28;20659;-63
2022/12/18 10:27:11;;;;;;;15.48;10.43;;;;;;;7.08;66.44;96337.19;5054302;28;20686;-62
2022/12/18 10:29:38;;;;;;;18.33;13.25;;;;;;;7.11;65.68;96342.22;5054924;28;20205;-61
2022/12/18 10:32:05;;;;;;;14.02;9.93;;;;;;;7.00;65.71;96340.53;5054762;28;20201;-65
2022/12/18 10:34:33;;;;;;;13.27;10.60;;;;;;;6.90;66.66;96346.44;5054536;28;20822;-65
2022/12/18 10:37:02;;;;;;;14.13;10.00;;;;;;;6.94;67.13;96338.84;5054648;28;21447;-64
2022/12/18 10:39:29;;;;;;;19.55;12.05;;;;;;;7.04;66.82;96334.63;5051755;28;20213;-63
2022/12/18 10:42:11;;;;;;;16.83;11.57;;;;;;;7.11;66.95;96333.81;5053278;28;20210;-61
2022/12/18 10:44:37;;;;;;;20.05;11.32;;;;;;;7.14;66.45;96338.88;5055091;28;20209;-66
2022/12/18 10:47:07;;;;;;;19.30;12.07;;;;;;;7.18;65.91;96340.53;5055040;28;20631;-65
2022/12/18 10:49:36;;;;;;;19.70;11.60;;;;;;;7.18;66.98;96330.41;5055391;28;20312;-63
2022/12/18 10:52:16;;;;;;;17.42;11.77;;;;;;;7.21;66.33;96335.47;5054614;28;20205;-66
2022/12/18 10:54:49;;;;;;;16.58;10.98;;;;;;;7.16;66.25;96338.03;5054363;28;20589;-64
2022/12/18 10:57:18;;;;;;;21.80;11.88;;;;;;;7.10;66.67;96332.97;5054288;28;20260;-63
2022/12/18 10:59:52;;;;;;;16.05;11.13;;;;;;;7.16;66.78;96332.97;5055059;28;20209;-65
2022/12/18 11:02:28;;;;;;;17.35;11.60;;;;;;;7.29;65.80;96332.94;5055549;28;20211;-64
2022/12/18 11:04:56;;;;;;;15.13;10.15;;;;;;;7.38;65.99;96331.28;5054572;28;20197;-62
2022/12/18 11:07:23;;;;;;;14.32;10.45;;;;;;;7.33;63.92;96330.44;5054442;28;20197;-66
2022/12/18 11:10:01;;;;;;;12.23;10.40;;;;;;;7.33;64.16;96340.53;5055178;28;20246;-66
2022/12/18 11:12:29;;;;;;;17.20;10.98;;;;;;;7.29;64.85;96331.28;5054358;28;20209;-62
2022/12/18 11:14:57;;;;;;;20.85;12.32;;;;;;;7.33;64.35;96319.47;5053891;28;20233;-66
2022/12/18 11:17:29;;;;;;;18.05;11.93;;;;;;;7.39;64.64;96334.66;5053461;28;20815;-62
2022/12/18 11:19:59;;;;;;;16.83;11.40;;;;;;;7.46;65.41;96327.03;5054311;28;20230;-63
2022/12/18 11:22:28;;;;;;;15.52;11.45;;;;;;;7.63;65.53;96333.75;5054413;28;20214;-64
2022/12/18 11:24:58;;;;;;;15.80;11.75;;;;;;;7.67;64.57;96326.13;5054691;28;20356;-68
2022/12/18 11:27:26;;;;;;;17.35;11.93;;;;;;;7.69;64.81;96343.84;5053089;28;20251;-68
2022/12/18 11:29:53;;;;;;;16.92;11.95;;;;;;;7.55;63.42;96340.50;5054229;28;20243;-62
2022/12/18 11:32:34;;;;;;;18.13;11.95;;;;;;;7.41;65.12;96338.03;5054414;28;20202;-65
2022/12/18 11:35:15;;;;;;;16.42;11.90;;;;;;;7.33;65.34;96335.50;5053288;28;20736;-64
2022/12/18 11:37:47;;;;;;;15.55;10.27;;;;;;;7.23;65.04;96335.47;5052926;28;20201;-65
2022/12/18 11:40:20;;;;;;;16.33;11.55;;;;;;;7.24;64.59;96338.00;5053518;28;20263;-62
2022/12/18 11:42:54;;;;;;;17.92;11.68;;;;;;;7.28;65.23;96336.31;5053059;28;20271;-63
2022/12/18 11:45:42;;;;;;;15.18;10.10;;;;;;;7.25;64.78;96342.22;5054904;28;20202;-66
2022/12/18 11:48:17;;;;;;;16.67;11.13;;;;;;;7.11;64.06;96344.75;5053276;28;20234;-64
2022/12/18 11:50:51;;;;;;;17.30;10.70;;;;;;;7.00;65.29;96340.53;5052987;28;20197;-66